Time;durP1;ratioP1;P1;durP2;ratioP2;P2;SDS_P1;SDS_P2;PMS_P1;PMS_P2;Temp;Humidity;BMP_temperature;BMP_pressure;BME280_temperature;BME280_humidity;BME280_pressure;Samples;Min_cycle;Max_cycle;Signal;HPM_P1;HPM_P2
2022/03/09 00:02:18;;;;;;;5.10;3.15;;;;;;;-0.83;100.00;101453.13;6024558;29;20057;-91
2022/03/09 00:05:22;;;;;;;7.45;4.18;;;;;;;-0.79;100.00;101462.41;6021595;29;20495;-91
2022/03/09 00:08:24;;;;;;;6.50;3.85;;;;;;;-0.74;100.00;101455.53;6022784;29;20133;-91
2022/03/09 00:11:26;;;;;;;5.07;3.80;;;;;;;-0.76;100.00;101454.72;6021172;29;20057;-90
2022/03/09 00:14:29;;;;;;;8.00;3.90;;;;;;;-0.76;100.00;101464.06;6016251;29;20044;-91
2022/03/09 00:17:32;;;;;;;6.70;4.07;;;;;;;-0.79;100.00;101462.41;6013578;29;20057;-91
2022/03/09 00:20:34;;;;;;;6.35;4.63;;;;;;;-0.81;100.00;101464.13;6016172;29;20637;-91
2022/03/09 00:23:36;;;;;;;6.00;3.78;;;;;;;-0.85;100.00;101469.28;6012475;29;20137;-91
2022/03/09 00:26:38;;;;;;;7.25;3.50;;;;;;;-0.89;100.00;101481.22;6015971;29;20141;-91
2022/03/09 00:29:44;;;;;;;8.38;4.00;;;;;;;-0.93;100.00;101475.31;6020647;29;20046;-91
2022/03/09 00:32:59;;;;;;;7.10;3.95;;;;;;;-0.96;100.00;101475.38;6002544;29;20333;-91
2022/03/09 00:36:40;;;;;;;6.38;3.47;;;;;;;-1.01;100.00;101478.84;5920390;29;20067;-90
2022/03/09 00:39:42;;;;;;;5.88;3.42;;;;;;;-1.05;100.00;101489.91;5928745;29;20086;-90
2022/03/09 00:42:44;;;;;;;5.15;3.33;;;;;;;-1.05;100.00;101498.38;5951159;29;20195;-91
2022/03/09 00:45:46;;;;;;;5.82;3.60;;;;;;;-1.06;100.00;101509.41;5946251;29;20528;-90
2022/03/09 00:48:49;;;;;;;5.20;3.78;;;;;;;-1.06;100.00;101508.59;5949071;29;20054;-90
2022/03/09 00:51:51;;;;;;;5.70;4.15;;;;;;;-1.00;100.00;101511.00;5950856;29;20046;-91
2022/03/09 00:54:53;;;;;;;8.57;3.95;;;;;;;-1.06;100.00;101514.50;5945260;29;20150;-91
2022/03/09 00:57:55;;;;;;;6.90;3.55;;;;;;;-1.09;100.00;101510.31;5949338;29;20503;-91
2022/03/09 01:00:57;;;;;;;5.75;3.75;;;;;;;-1.11;100.00;101512.03;5948719;29;20047;-91
2022/03/09 01:04:00;;;;;;;7.82;3.40;;;;;;;-1.11;100.00;101506.09;5944930;29;20203;-90
2022/03/09 01:07:04;;;;;;;6.90;3.50;;;;;;;-0.99;100.00;101503.38;5947761;29;20066;-90
2022/03/09 01:10:08;;;;;;;5.13;3.10;;;;;;;-0.96;100.00;101510.94;5949009;29;20051;-91
2022/03/09 01:13:10;;;;;;;5.55;4.03;;;;;;;-0.93;100.00;101505.81;5973173;29;20123;-90
2022/03/09 01:16:12;;;;;;;8.98;3.88;;;;;;;-0.93;100.00;101510.06;6017139;29;20109;-91
2022/03/09 01:19:14;;;;;;;6.85;3.78;;;;;;;-0.93;100.00;101512.59;6022925;29;20050;-90
2022/03/09 01:22:19;;;;;;;5.88;3.40;;;;;;;-0.94;100.00;101511.78;6022142;29;20041;-90
2022/03/09 01:25:21;;;;;;;6.03;3.40;;;;;;;-0.95;100.00;101525.31;6003085;29;20368;-90
2022/03/09 01:28:23;;;;;;;4.88;2.90;;;;;;;-0.97;100.00;101526.22;5999317;29;20057;-91
2022/03/09 01:31:25;;;;;;;4.78;3.10;;;;;;;-1.02;100.00;101518.66;6002175;29;20045;-91
2022/03/09 01:34:27;;;;;;;7.28;3.38;;;;;;;-1.06;100.00;101513.66;6018278;29;20384;-91
2022/03/09 01:37:29;;;;;;;5.88;3.42;;;;;;;-1.11;100.00;101512.03;6016332;29;20046;-90
2022/03/09 01:40:31;;;;;;;4.78;3.25;;;;;;;-1.16;100.00;101508.72;6000490;29;20170;-91
2022/03/09 01:43:33;;;;;;;4.90;3.17;;;;;;;-1.20;100.00;101509.59;6020117;29;20137;-91
2022/03/09 01:46:35;;;;;;;5.82;3.33;;;;;;;-1.22;100.00;101513.84;6001672;29;20666;-91
2022/03/09 01:49:39;;;;;;;7.10;3.67;;;;;;;-1.21;100.00;101507.94;6015760;29;20189;-91
2022/03/09 01:52:41;;;;;;;6.47;3.53;;;;;;;-1.23;100.00;101506.28;6007957;29;20194;-91
2022/03/09 01:55:45;;;;;;;5.78;3.33;;;;;;;-1.26;100.00;101504.63;5989778;29;20041;-90
2022/03/09 01:58:47;;;;;;;6.10;3.47;;;;;;;-1.27;100.00;101510.53;6011721;29;20669;-90
2022/03/09 02:01:49;;;;;;;5.68;3.72;;;;;;;-1.28;100.00;101502.97;6024469;29;20049;-90
2022/03/09 02:04:52;;;;;;;6.90;3.90;;;;;;;-1.29;100.00;101502.13;6005337;29;20049;-91
2022/03/09 02:11:15;;;;;;;5.20;3.67;;;;;;;-1.23;100.00;101488.50;6016523;29;20088;-90
2022/03/09 02:14:37;;;;;;;5.40;3.45;;;;;;;-1.22;100.00;101488.47;6020084;29;20045;-90
2022/03/09 02:17:52;;;;;;;5.95;3.50;;;;;;;-1.22;100.00;101483.38;6002444;29;20042;-90
2022/03/09 02:21:01;;;;;;;5.18;3.63;;;;;;;-1.22;100.00;101482.53;6016816;29;20483;-90
2022/03/09 02:24:03;;;;;;;4.93;3.72;;;;;;;-1.29;100.00;101481.81;6009392;29;20053;-91
2022/03/09 02:27:05;;;;;;;5.95;3.65;;;;;;;-1.35;100.00;101482.72;6003590;29;20053;-90
2022/03/09 02:30:13;;;;;;;5.40;4.13;;;;;;;-1.40;100.00;101484.50;6017477;29;20044;-91
2022/03/09 02:33:15;;;;;;;6.00;3.70;;;;;;;-1.34;100.00;101470.88;6005423;29;20052;-91
2022/03/09 02:36:20;;;;;;;7.53;4.22;;;;;;;-1.37;100.00;101489.50;5997052;29;20042;-90
2022/03/09 02:39:22;;;;;;;6.90;4.35;;;;;;;-1.39;100.00;101481.09;6002135;29;20137;-91
2022/03/09 02:42:24;;;;;;;7.22;3.95;;;;;;;-1.40;100.00;101478.56;6020735;29;20524;-90
2022/03/09 02:45:27;;;;;;;7.13;4.05;;;;;;;-1.41;100.00;101497.22;6004538;29;20056;-90
2022/03/09 02:48:29;;;;;;;6.40;3.67;;;;;;;-1.41;100.00;101492.97;6005195;29;20059;-90
2022/03/09 02:51:32;;;;;;;7.03;4.18;;;;;;;-1.45;100.00;101495.56;6019602;29;20117;-90
2022/03/09 02:54:33;;;;;;;7.10;3.80;;;;;;;-1.51;100.00;101496.50;6016923;29;20496;-90
2022/03/09 02:57:35;;;;;;;5.93;3.58;;;;;;;-1.57;100.00;101491.50;6019467;29;20052;-90
2022/03/09 03:00:37;;;;;;;9.75;4.38;;;;;;;-1.61;100.00;101500.03;6001645;29;20060;-90
2022/03/09 03:03:41;;;;;;;4.93;3.70;;;;;;;-1.60;100.00;101497.44;5992682;29;20400;-90
2022/03/09 03:06:44;;;;;;;7.72;3.97;;;;;;;-1.63;100.00;101494.13;6000019;29;20049;-90
2022/03/09 03:09:45;;;;;;;6.00;3.60;;;;;;;-1.65;100.00;101503.44;6000548;29;20748;-90
2022/03/09 03:12:48;;;;;;;7.00;3.92;;;;;;;-1.71;100.00;101494.22;6001535;29;20109;-90
2022/03/09 03:15:50;;;;;;;7.32;4.20;;;;;;;-1.74;100.00;101497.63;6005207;29;20057;-90
2022/03/09 03:19:05;;;;;;;6.50;3.90;;;;;;;-1.78;100.00;101502.78;6008156;29;20037;-90
2022/03/09 03:22:08;;;;;;;6.10;4.32;;;;;;;-1.85;100.00;101496.09;6016740;29;20045;-90
2022/03/09 03:25:10;;;;;;;5.15;3.55;;;;;;;-1.85;100.00;101503.69;6004886;29;20046;-90
2022/03/09 03:28:12;;;;;;;7.72;4.57;;;;;;;-1.93;100.00;101498.72;6011120;29;20636;-90
2022/03/09 03:31:14;;;;;;;5.65;3.90;;;;;;;-1.98;100.00;101500.47;6000393;29;20057;-90
2022/03/09 03:34:16;;;;;;;8.45;4.50;;;;;;;-2.03;100.00;101490.38;5994949;29;20052;-90
2022/03/09 03:37:18;;;;;;;8.38;4.40;;;;;;;-2.01;100.00;101491.19;6007620;29;20053;-90
2022/03/09 03:40:20;;;;;;;7.60;4.30;;;;;;;-2.03;100.00;101503.06;6002347;29;20133;-90
2022/03/09 03:43:22;;;;;;;9.10;4.20;;;;;;;-2.01;100.00;101506.41;6000502;29;20053;-90
2022/03/09 03:46:24;;;;;;;6.82;4.00;;;;;;;-2.00;100.00;101508.09;6018419;29;20056;-90
2022/03/09 03:49:32;;;;;;;7.47;4.10;;;;;;;-1.98;100.00;101498.75;6005168;29;20045;-90
2022/03/09 03:52:34;;;;;;;7.72;4.07;;;;;;;-2.00;100.00;101508.09;6001148;29;20049;-90
2022/03/09 03:55:36;;;;;;;5.47;3.80;;;;;;;-2.04;100.00;101505.59;6016097;29;20084;-90
2022/03/09 03:58:38;;;;;;;7.25;4.45;;;;;;;-2.02;100.00;101504.72;6019580;29;20052;-90
2022/03/09 04:01:40;;;;;;;7.07;4.40;;;;;;;-2.02;100.00;101504.72;5995309;29;20531;-90
2022/03/09 04:04:42;;;;;;;7.30;4.25;;;;;;;-2.02;100.00;101504.72;6011670;29;20049;-90
2022/03/09 04:07:45;;;;;;;8.15;4.00;;;;;;;-2.01;100.00;101511.50;6010080;29;20053;-90
2022/03/09 04:10:47;;;;;;;6.43;4.18;;;;;;;-2.02;100.00;101512.31;6022059;29;20068;-90
2022/03/09 04:13:50;;;;;;;6.68;3.55;;;;;;;-2.05;100.00;101519.97;6011432;29;20045;-90
2022/03/09 04:16:52;;;;;;;7.32;4.35;;;;;;;-2.07;100.00;101514.06;6019945;29;20129;-90
2022/03/09 04:19:54;;;;;;;6.95;4.05;;;;;;;-2.07;100.00;101513.25;6019859;29;20590;-90
2022/03/09 04:22:56;;;;;;;6.30;3.85;;;;;;;-2.14;100.00;101506.56;6000498;29;20570;-90
2022/03/09 04:26:00;;;;;;;7.72;3.85;;;;;;;-2.06;100.00;101505.63;6008403;29;20045;-90
2022/03/09 04:29:03;;;;;;;6.95;3.45;;;;;;;-1.92;100.00;101514.78;6004781;29;20050;-90
2022/03/09 04:32:05;;;;;;;6.43;3.58;;;;;;;-1.91;100.00;101518.97;6005917;29;20052;-90
2022/03/09 04:35:09;;;;;;;5.85;3.55;;;;;;;-1.89;100.00;101514.72;6004416;29;20042;-90
2022/03/09 04:38:11;;;;;;;7.28;4.30;;;;;;;-1.85;100.00;101517.22;6009263;29;20041;-90
2022/03/09 04:41:13;;;;;;;7.10;3.88;;;;;;;-1.84;100.00;101523.13;6009877;29;20533;-90
2022/03/09 04:44:15;;;;;;;7.30;4.20;;;;;;;-1.86;100.00;101520.63;6007153;29;20048;-90
2022/03/09 04:47:17;;;;;;;5.38;3.97;;;;;;;-1.92;100.00;101517.31;6003499;29;20053;-90
2022/03/09 04:50:19;;;;;;;6.38;3.90;;;;;;;-1.90;100.00;101528.28;6013341;29;20479;-90
2022/03/09 04:53:22;;;;;;;7.22;3.30;;;;;;;-1.94;100.00;101524.91;6014017;29;20222;-90
2022/03/09 04:56:23;;;;;;;6.60;3.83;;;;;;;-1.88;100.00;101531.66;6008045;29;20760;-90
2022/03/09 04:59:25;;;;;;;6.47;4.00;;;;;;;-1.91;100.00;101531.66;6006648;29;20049;-90
2022/03/09 05:02:27;;;;;;;9.52;4.30;;;;;;;-1.83;100.00;101529.91;6018366;29;20068;-90
2022/03/09 05:05:29;;;;;;;7.50;4.40;;;;;;;-1.82;100.00;101536.63;6001576;29;20038;-90
2022/03/09 05:08:33;;;;;;;4.90;4.00;;;;;;;-1.87;100.00;101536.69;6015835;29;20118;-90
2022/03/09 05:11:35;;;;;;;5.88;4.00;;;;;;;-1.89;100.00;101542.63;6005096;29;20049;-90
2022/03/09 05:14:37;;;;;;;5.15;3.63;;;;;;;-1.95;100.00;101534.25;6006178;29;20109;-90
2022/03/09 05:17:44;;;;;;;7.22;4.45;;;;;;;-1.98;100.00;101528.38;6005034;29;20057;-90
2022/03/09 05:20:47;;;;;;;8.25;4.20;;;;;;;-2.04;100.00;101521.66;6015383;29;20041;-90
2022/03/09 05:23:49;;;;;;;4.60;3.60;;;;;;;-2.06;100.00;101522.53;6022320;29;20114;-90
2022/03/09 05:26:51;;;;;;;8.52;4.20;;;;;;;-2.05;100.00;101521.69;6020047;29;20053;-90
2022/03/09 05:29:54;;;;;;;6.78;4.53;;;;;;;-2.05;100.00;101517.44;6021917;29;20049;-90
2022/03/09 05:32:56;;;;;;;5.53;4.25;;;;;;;-2.05;100.00;101519.16;6019478;29;20558;-90
2022/03/09 05:35:58;;;;;;;6.82;4.25;;;;;;;-2.03;100.00;101520.81;6024369;29;20069;-90
2022/03/09 05:39:00;;;;;;;6.05;3.97;;;;;;;-1.93;100.00;101515.63;6004055;29;20566;-90
2022/03/09 05:42:02;;;;;;;9.43;4.60;;;;;;;-1.95;100.00;101521.56;6026040;29;20056;-90
2022/03/09 05:45:07;;;;;;;7.63;4.70;;;;;;;-1.87;100.00;101523.16;6026123;29;20045;-90
2022/03/09 05:48:21;;;;;;;7.95;4.82;;;;;;;-1.88;100.00;101522.34;6025139;29;20133;-90
2022/03/09 05:51:36;;;;;;;6.07;4.40;;;;;;;-1.88;100.00;101524.88;6036137;29;20128;-90
2022/03/09 05:54:38;;;;;;;8.52;4.63;;;;;;;-1.81;100.00;101530.72;6005733;29;20400;-90
2022/03/09 05:57:40;;;;;;;9.00;5.18;;;;;;;-1.83;100.00;101528.19;6008431;29;20053;-90
2022/03/09 06:00:43;;;;;;;7.70;4.57;;;;;;;-1.85;100.00;101527.38;6014341;29;20607;-90
2022/03/09 06:03:45;;;;;;;9.73;4.80;;;;;;;-1.81;100.00;101525.66;6007117;29;20216;-90
2022/03/09 06:06:46;;;;;;;8.02;5.22;;;;;;;-1.79;100.00;101534.06;5997117;29;20061;-90
2022/03/09 06:09:49;;;;;;;9.05;4.60;;;;;;;-1.74;100.00;101532.31;6006580;29;20053;-90
2022/03/09 06:12:51;;;;;;;12.27;5.18;;;;;;;-1.71;100.00;101526.34;6024771;29;20046;-90
2022/03/09 06:15:53;;;;;;;7.20;4.45;;;;;;;-1.67;100.00;101528.84;6000089;29;20041;-90
2022/03/09 06:18:56;;;;;;;6.72;4.32;;;;;;;-1.62;100.00;101514.41;6010396;29;20061;-90
2022/03/09 06:21:57;;;;;;;8.55;4.50;;;;;;;-1.38;100.00;101525.09;5989815;29;20043;-90
2022/03/09 06:24:59;;;;;;;6.45;4.43;;;;;;;-1.36;100.00;101519.16;6011003;29;20174;-90
2022/03/09 06:28:01;;;;;;;7.13;4.80;;;;;;;-1.37;100.00;101516.63;6008346;29;20046;-90
2022/03/09 06:31:03;;;;;;;6.97;4.68;;;;;;;-1.35;100.00;101519.97;6012199;29;20046;-90
2022/03/09 06:34:06;;;;;;;7.45;4.63;;;;;;;-1.35;100.00;101520.81;6027744;29;20053;-90
2022/03/09 06:37:08;;;;;;;8.55;4.72;;;;;;;-1.39;100.00;101519.19;5998431;29;20057;-90
2022/03/09 06:40:11;;;;;;;7.40;5.05;;;;;;;-1.43;100.00;101529.41;5989395;29;20046;-90
2022/03/09 06:43:13;;;;;;;6.50;4.53;;;;;;;-1.42;100.00;101538.69;6022800;29;20060;-90
2022/03/09 06:46:16;;;;;;;6.90;4.35;;;;;;;-1.39;100.00;101536.09;6012339;29;20695;-90
2022/03/09 06:49:18;;;;;;;7.65;4.75;;;;;;;-1.38;100.00;101541.19;6027659;29;20089;-90
2022/03/09 06:52:20;;;;;;;11.45;4.72;;;;;;;-1.31;100.00;101545.31;5988477;29;20459;-90
2022/03/09 06:55:22;;;;;;;7.45;4.68;;;;;;;-1.25;100.00;101553.72;6022141;29;20046;-90
2022/03/09 06:58:26;;;;;;;8.65;4.32;;;;;;;-1.21;100.00;101546.03;6011299;29;20065;-90
2022/03/09 07:01:29;;;;;;;11.82;4.68;;;;;;;-1.16;100.00;101543.44;6010903;29;20053;-90
2022/03/09 07:04:31;;;;;;;7.95;4.55;;;;;;;-1.10;100.00;101545.88;6023792;29;20076;-90
2022/03/09 07:07:33;;;;;;;7.32;5.05;;;;;;;-1.04;100.00;101550.03;6024100;29;20052;-90
2022/03/09 07:10:36;;;;;;;8.95;5.05;;;;;;;-0.96;100.00;101553.31;6027014;29;20412;-90
2022/03/09 07:13:40;;;;;;;9.05;5.00;;;;;;;-0.96;100.00;101558.41;6011301;29;20110;-90
2022/03/09 07:16:42;;;;;;;11.10;5.55;;;;;;;-0.96;100.00;101556.69;6003683;29;20060;-90
2022/03/09 07:19:44;;;;;;;11.52;5.07;;;;;;;-0.93;100.00;101553.25;6011441;29;20053;-90
2022/03/09 07:22:47;;;;;;;7.15;4.80;;;;;;;-0.89;100.00;101560.81;6025896;29;20128;-90
2022/03/09 07:25:49;;;;;;;8.88;5.60;;;;;;;-0.85;100.00;101559.06;6007681;29;20514;-90
2022/03/09 07:28:51;;;;;;;9.50;5.72;;;;;;;-0.77;100.00;101562.34;6010599;29;20049;-90
2022/03/09 07:31:53;;;;;;;8.80;5.22;;;;;;;-0.53;100.00;101573.00;6019773;29;20050;-90
2022/03/09 07:34:55;;;;;;;10.80;5.55;;;;;;;-0.30;100.00;101570.06;6036939;29;20062;-90
2022/03/09 07:37:57;;;;;;;8.68;5.40;;;;;;;-0.32;100.00;101575.19;6010414;29;20057;-90
2022/03/09 07:40:59;;;;;;;9.85;5.53;;;;;;;-0.22;100.00;101571.63;6025175;29;20054;-90
2022/03/09 07:44:01;;;;;;;10.00;5.47;;;;;;;-0.19;100.00;101577.53;6027023;29;20045;-90
2022/03/09 07:47:04;;;;;;;9.60;5.50;;;;;;;-0.11;100.00;101586.69;6023113;29;20078;-90
2022/03/09 07:50:07;;;;;;;8.85;5.38;;;;;;;0.01;100.00;101587.34;6024483;29;20052;-90
2022/03/09 07:53:09;;;;;;;11.98;5.72;;;;;;;0.09;100.00;101590.59;5998853;29;20049;-90
2022/03/09 07:56:13;;;;;;;9.43;5.35;;;;;;;0.07;100.00;101588.06;6007668;29;20046;-90
2022/03/09 07:59:15;;;;;;;7.30;5.00;;;;;;;0.28;100.00;101586.00;6023228;29;20669;-90
2022/03/09 08:02:16;;;;;;;9.80;5.22;;;;;;;0.32;100.00;101588.44;6024449;29;20053;-90
2022/03/09 08:05:18;;;;;;;9.52;6.00;;;;;;;0.32;100.00;101585.88;6006957;29;20053;-90
2022/03/09 08:08:20;;;;;;;10.02;5.32;;;;;;;0.43;100.00;101585.69;6018615;29;20072;-90
2022/03/09 08:11:22;;;;;;;9.93;5.30;;;;;;;0.36;100.00;101586.69;6024434;29;20045;-90
2022/03/09 08:14:25;;;;;;;10.27;6.68;;;;;;;0.43;100.00;101585.69;6005081;29;20049;-90
2022/03/09 08:17:26;;;;;;;8.25;5.35;;;;;;;0.49;100.00;101592.38;6026348;29;20045;-90
2022/03/09 08:20:29;;;;;;;8.55;5.53;;;;;;;0.56;100.00;101588.84;6008267;29;20045;-91
2022/03/09 08:23:31;;;;;;;9.05;5.25;;;;;;;0.62;100.00;101592.09;6023099;29;20189;-90
2022/03/09 08:26:33;;;;;;;10.77;6.00;;;;;;;0.81;100.00;101595.09;6024006;29;20049;-90
2022/03/09 08:29:35;;;;;;;11.93;5.72;;;;;;;0.87;100.00;101599.25;6022167;29;20085;-90
2022/03/09 08:32:37;;;;;;;8.70;5.40;;;;;;;0.95;100.00;101594.81;6023243;29;20240;-90
2022/03/09 08:35:39;;;;;;;9.02;5.03;;;;;;;1.01;100.00;101588.72;6021122;29;20048;-90
2022/03/09 08:38:41;;;;;;;11.63;5.53;;;;;;;1.07;100.00;101583.50;6019662;29;20046;-91
2022/03/09 08:41:49;;;;;;;10.80;5.82;;;;;;;1.28;100.00;101579.63;6003792;29;20073;-90
2022/03/09 08:45:11;;;;;;;7.70;5.47;;;;;;;1.33;100.00;101585.44;6017365;29;20046;-90
2022/03/09 08:48:13;;;;;;;12.40;5.47;;;;;;;1.40;100.00;101589.53;6007959;29;20049;-91
2022/03/09 08:51:20;;;;;;;8.35;5.47;;;;;;;1.51;100.00;101594.38;6023963;29;20190;-91
2022/03/09 08:54:22;;;;;;;8.88;5.30;;;;;;;1.62;100.00;101599.25;6025780;29;20133;-90
2022/03/09 08:57:26;;;;;;;8.43;5.45;;;;;;;1.75;100.00;101600.59;6037701;29;20070;-91
2022/03/09 09:00:28;;;;;;;11.45;5.30;;;;;;;1.81;100.00;101603.00;6002071;29;20448;-91
2022/03/09 09:03:31;;;;;;;11.15;5.38;;;;;;;1.96;100.00;101611.16;6002260;29;20049;-91
2022/03/09 09:06:46;;;;;;;8.75;5.45;;;;;;;2.16;100.00;101606.34;6005655;29;20940;-91
2022/03/09 09:09:49;;;;;;;12.70;6.25;;;;;;;2.26;100.00;101612.91;6017407;29;20060;-91
2022/03/09 09:12:51;;;;;;;9.52;5.97;;;;;;;2.37;100.00;101617.72;6007025;29;20049;-91
2022/03/09 09:15:53;;;;;;;10.85;6.35;;;;;;;2.46;100.00;101608.94;5992804;29;20060;-91
2022/03/09 09:18:55;;;;;;;11.38;6.05;;;;;;;2.57;100.00;101614.63;5991293;29;20401;-91
2022/03/09 09:21:57;;;;;;;9.45;5.93;;;;;;;2.65;100.00;101612.69;6028947;29;20049;-91
2022/03/09 09:25:01;;;;;;;10.15;5.40;;;;;;;2.77;100.00;101609.78;6028023;29;20111;-91
2022/03/09 09:28:04;;;;;;;11.93;6.13;;;;;;;2.75;100.00;101619.19;6010482;29;20057;-91
2022/03/09 09:31:06;;;;;;;9.80;5.55;;;;;;;2.94;100.00;101621.25;6015572;29;20415;-91
2022/03/09 09:34:08;;;;;;;10.27;5.43;;;;;;;3.01;100.00;101612.50;6015254;29;20056;-91
2022/03/09 09:37:11;;;;;;;9.48;5.93;;;;;;;3.11;100.00;101613.06;6035738;29;20074;-92
2022/03/09 09:40:14;;;;;;;11.05;5.68;;;;;;;3.17;100.00;101610.31;6005203;29;20056;-91
2022/03/09 09:43:16;;;;;;;11.50;6.03;;;;;;;3.26;99.58;101604.91;6034207;29;20088;-92
2022/03/09 09:46:19;;;;;;;9.43;5.40;;;;;;;3.43;96.71;101601.84;6026581;29;20053;-92
2022/03/09 09:49:24;;;;;;;11.20;5.75;;;;;;;3.64;94.87;101605.41;6053908;29;20102;-92
2022/03/09 09:52:28;;;;;;;9.23;6.00;;;;;;;3.78;93.34;101607.53;6019622;29;20639;-92
2022/03/09 09:55:31;;;;;;;9.52;6.18;;;;;;;3.88;92.94;101602.03;6042115;29;20101;-92
2022/03/09 09:58:36;;;;;;;10.02;5.55;;;;;;;3.91;91.87;101602.81;6016512;29;20642;-92
2022/03/09 10:01:40;;;;;;;12.63;6.55;;;;;;;4.07;94.50;101603.97;6028716;29;20046;-92
2022/03/09 10:04:45;;;;;;;8.85;5.53;;;;;;;4.25;89.29;101590.53;6042267;29;20059;-92
2022/03/09 10:08:04;;;;;;;11.77;6.20;;;;;;;4.42;87.20;101595.06;6021606;29;20325;-92
2022/03/09 10:11:07;;;;;;;8.68;6.00;;;;;;;4.47;90.51;101589.75;6031114;29;20045;-92
2022/03/09 10:14:17;;;;;;;8.75;6.10;;;;;;;4.60;90.01;101595.28;6034547;29;20057;-92
2022/03/09 10:17:30;;;;;;;9.40;5.55;;;;;;;4.72;87.32;101598.22;6059356;29;20044;-93
2022/03/09 10:20:37;;;;;;;14.02;5.93;;;;;;;4.96;87.81;101601.56;6013819;29;20084;-92
2022/03/09 10:23:57;;;;;;;10.60;6.00;;;;;;;5.06;83.19;101598.66;6043160;29;20053;-92
2022/03/09 10:27:04;;;;;;;9.30;5.57;;;;;;;5.11;83.42;101597.59;6064190;29;20048;-92
2022/03/09 10:30:42;;;;;;;9.52;6.25;;;;;;;5.38;83.17;101608.50;6037978;29;20058;-93
2022/03/09 10:34:13;;;;;;;7.97;5.90;;;;;;;5.58;80.05;101604.28;6118152;23;20037;-92
2022/03/09 10:37:38;;;;;;;8.95;5.82;;;;;;;5.71;77.36;101602.88;6105296;24;20072;-92
2022/03/09 10:40:49;;;;;;;8.30;5.40;;;;;;;5.88;72.87;101598.78;6056252;29;20048;-93
2022/03/09 10:43:59;;;;;;;9.20;5.75;;;;;;;5.92;73.27;101593.47;6050751;29;20057;-93
2022/03/09 10:47:42;;;;;;;11.43;5.70;;;;;;;6.12;75.04;101597.78;6028684;29;20076;-93
2022/03/09 10:50:52;;;;;;;10.60;6.40;;;;;;;6.23;73.20;101590.44;6058297;29;20056;-93
2022/03/09 10:54:01;;;;;;;10.95;6.03;;;;;;;6.33;71.61;101598.56;6042499;29;20137;-93
2022/03/09 10:57:16;;;;;;;9.30;5.97;;;;;;;6.52;72.44;101593.47;6057005;29;20044;-93
2022/03/09 11:00:45;;;;;;;10.50;5.22;;;;;;;6.66;69.76;101591.09;6015964;29;20118;-93
2022/03/09 11:04:17;;;;;;;8.60;5.75;;;;;;;6.71;65.83;101584.91;6209546;24;20064;-93
2022/03/09 11:07:36;;;;;;;7.82;5.45;;;;;;;6.94;65.92;101582.13;6062960;29;20463;-93
2022/03/09 11:10:39;;;;;;;8.05;5.45;;;;;;;7.04;62.61;101580.78;6077692;29;20077;-93
2022/03/09 11:13:41;;;;;;;10.68;5.95;;;;;;;7.03;63.20;101583.41;6059092;29;20049;-93
2022/03/09 11:16:45;;;;;;;9.90;5.35;;;;;;;7.22;65.84;101581.63;6072194;29;20048;-93
2022/03/09 11:20:40;;;;;;;8.63;5.70;;;;;;;7.32;64.06;101575.13;3218610;23;20334;-91
2022/03/09 11:23:55;;;;;;;9.25;5.47;;;;;;;7.59;67.77;101576.44;6021312;29;20034;-93
2022/03/09 11:27:18;;;;;;;8.55;5.82;;;;;;;7.71;61.21;101570.69;6153543;23;20028;-93
2022/03/09 11:31:06;;;;;;;10.20;6.20;;;;;;;7.77;64.10;101565.19;7402754;23;20023;31
2022/03/09 12:21:45;;;;;;;7.00;4.78;;;;;;;9.19;50.86;101535.28;7426701;23;20023;31
2022/03/09 12:25:37;;;;;;;8.38;5.85;;;;;;;9.16;48.37;101533.69;6943480;23;20024;-93
2022/03/09 12:32:52;;;;;;;7.75;5.63;;;;;;;9.45;48.35;101531.22;7302121;23;20180;31
2022/03/09 12:36:24;;;;;;;9.48;5.60;;;;;;;9.60;46.05;101539.81;6219451;23;20036;-93
2022/03/09 12:39:33;;;;;;;7.65;5.30;;;;;;;9.59;46.73;101536.41;6430694;23;20027;-93
2022/03/09 12:42:36;;;;;;;6.63;4.50;;;;;;;9.68;44.45;101535.03;6384005;23;20032;31
2022/03/09 12:45:53;;;;;;;7.82;5.05;;;;;;;9.79;46.16;101531.78;6068516;29;20029;-93
2022/03/09 12:49:18;;;;;;;6.85;5.28;;;;;;;9.81;47.32;101525.66;6209699;23;20028;31
2022/03/09 12:52:22;;;;;;;7.40;5.55;;;;;;;9.94;46.83;101525.72;6248055;23;20096;-93
2022/03/09 12:55:24;;;;;;;7.40;5.40;;;;;;;9.91;45.98;101518.13;6102635;29;20020;-93
2022/03/09 12:58:27;;;;;;;8.70;5.20;;;;;;;9.98;44.19;101516.84;6071618;29;20045;-93
2022/03/09 13:01:32;;;;;;;8.98;5.72;;;;;;;10.07;45.86;101526.66;6069585;29;20044;-96
2022/03/09 13:04:42;;;;;;;8.15;5.57;;;;;;;10.12;43.50;101518.59;6075987;29;20029;-96
2022/03/09 13:08:05;;;;;;;7.03;5.18;;;;;;;10.24;45.44;101522.22;6063276;29;20038;-95
2022/03/09 13:11:07;;;;;;;7.60;5.47;;;;;;;10.45;46.13;101523.47;6040181;29;20049;-95
2022/03/09 13:14:20;;;;;;;10.65;5.57;;;;;;;10.54;42.86;101525.50;6071209;29;20407;-95
2022/03/09 13:17:23;;;;;;;8.20;5.60;;;;;;;10.66;42.53;101518.72;6054923;29;20045;-95
2022/03/09 13:20:25;;;;;;;8.05;5.30;;;;;;;10.70;43.95;101520.16;6080113;29;20064;-95
2022/03/09 13:23:33;;;;;;;6.20;5.18;;;;;;;10.85;41.56;101520.94;6047174;29;20510;-95
2022/03/09 13:26:40;;;;;;;7.07;4.95;;;;;;;10.86;40.96;101512.28;6076415;29;20085;-95
2022/03/09 13:29:45;;;;;;;8.18;5.05;;;;;;;10.96;42.72;101504.75;6047927;29;20036;-95
2022/03/09 13:32:47;;;;;;;7.20;5.15;;;;;;;11.08;41.33;101510.84;6071168;29;20060;-94
2022/03/09 13:35:52;;;;;;;7.68;5.55;;;;;;;11.23;39.31;101502.09;6073574;29;20054;-95
2022/03/09 13:38:57;;;;;;;7.63;5.15;;;;;;;11.29;42.36;101493.91;6044911;29;20225;-95
2022/03/09 13:42:02;;;;;;;8.40;5.18;;;;;;;11.40;40.41;101498.38;6060599;29;20040;-95
2022/03/09 13:45:08;;;;;;;7.05;4.95;;;;;;;11.54;42.61;101497.47;6049584;29;20025;-95
2022/03/09 13:48:22;;;;;;;7.53;5.32;;;;;;;11.67;39.95;101489.66;6077923;29;20068;-95
2022/03/09 13:51:37;;;;;;;7.30;5.50;;;;;;;11.58;40.52;101486.78;6051767;29;20041;-95
2022/03/09 13:55:09;;;;;;;;;;;;;;;;;;;;;
2022/03/09 14:01:47;;;;;;;7.05;5.22;;;;;;;11.77;39.32;101480.31;6909189;23;20079;-93
2022/03/09 14:09:13;;;;;;;6.93;5.50;;;;;;;11.75;38.66;101466.63;7399646;23;20020;31
2022/03/09 14:34:30;;;;;;;9.73;6.72;;;;;;;12.01;41.07;101472.66;7296495;23;19921;-93
2022/03/09 14:37:34;;;;;;;9.05;6.13;;;;;;;12.01;40.36;101475.25;6099987;29;20477;-93
2022/03/09 14:40:36;;;;;;;12.50;8.40;;;;;;;12.05;42.58;101474.09;6113779;29;20075;-93
2022/03/09 14:43:39;;;;;;;8.65;6.07;;;;;;;12.13;40.47;101466.59;6121168;29;20064;-93
2022/03/09 14:46:43;;;;;;;10.65;6.60;;;;;;;12.05;39.29;101464.53;6099685;29;20048;-93
2022/03/09 14:49:49;;;;;;;9.73;6.50;;;;;;;12.04;41.08;101464.63;6113518;29;20047;-93
2022/03/09 14:52:51;;;;;;;9.82;6.65;;;;;;;11.99;41.74;101464.13;6115030;29;20099;-88
2022/03/09 14:56:03;;;;;;;8.63;6.57;;;;;;;11.96;41.95;101459.16;6107418;24;20098;-93
2022/03/09 15:13:38;;;;;;;10.85;6.53;;;;;;;11.77;42.64;101450.03;7364607;23;20962;-93
2022/03/09 20:00:42;;;;;;;13.77;9.23;;;;;;;2.64;100.00;101574.41;6561969;23;20034;-93
2022/03/09 20:04:23;;;;;;;15.43;8.68;;;;;;;2.52;100.00;101573.03;6715126;23;20028;-92
2022/03/09 20:22:27;;;;;;;16.15;9.85;;;;;;;2.34;100.00;101571.81;6622847;24;20049;-94
2022/03/09 20:37:46;;;;;;;14.95;9.80;;;;;;;2.39;100.00;101577.66;6807148;23;20037;-93
2022/03/09 20:41:12;;;;;;;16.20;9.20;;;;;;;2.39;100.00;101577.66;6781467;23;20058;-93
2022/03/09 20:52:12;;;;;;;14.98;8.85;;;;;;;2.28;100.00;101595.81;6134055;23;20057;-92
2022/03/09 20:55:22;;;;;;;16.15;9.43;;;;;;;2.17;100.00;101594.44;6107058;24;20043;-92
2022/03/09 20:58:38;;;;;;;14.93;9.27;;;;;;;2.08;100.00;101588.69;6070643;24;20053;-93
2022/03/09 21:01:45;;;;;;;13.50;9.25;;;;;;;2.05;100.00;101591.31;6041128;29;20065;-93
2022/03/09 21:04:58;;;;;;;14.52;9.57;;;;;;;2.00;100.00;101602.53;5947169;29;20039;-93
2022/03/09 21:08:10;;;;;;;16.45;9.68;;;;;;;1.97;100.00;101605.19;5934003;29;20047;-93
2022/03/09 21:11:22;;;;;;;;;;;;;;;1.93;100.00;101600.13;5990681;29;20062;-93
2022/03/09 21:14:38;;;;;;;17.23;9.38;;;;;;;1.88;100.00;101601.97;5991310;29;19936;-93
2022/03/09 21:18:05;;;;;;;16.63;9.88;;;;;;;1.85;100.00;101606.31;6111251;27;8698153;-93
2022/03/09 21:21:13;;;;;;;18.30;10.23;;;;;;;1.82;100.00;101601.31;6375439;28;20131;-93